createdAt,value
2023-01-23T00:01:08.831Z,8.20
2023-01-23T00:03:35.907Z,8.10
2023-01-23T00:06:08.829Z,8.17
2023-01-23T00:08:36.721Z,8.33
2023-01-23T00:11:15.964Z,7.87
2023-01-23T00:13:43.038Z,8.17
2023-01-23T00:16:13.669Z,7.73
2023-01-23T00:18:40.865Z,7.73
2023-01-23T00:21:10.584Z,8.50
2023-01-23T00:23:37.557Z,7.97
2023-01-23T00:26:10.962Z,8.23
2023-01-23T00:28:38.508Z,8.13
2023-01-23T00:31:13.016Z,7.80
2023-01-23T00:33:40.927Z,8.23
2023-01-23T00:36:08.334Z,7.47
2023-01-23T00:38:35.677Z,8.97
2023-01-23T00:41:03.059Z,7.67
2023-01-23T00:43:30.470Z,7.43
2023-01-23T00:45:57.599Z,8.70
2023-01-23T00:48:24.500Z,8.13
2023-01-23T00:50:51.856Z,8.40
2023-01-23T00:53:18.752Z,7.60
2023-01-23T00:55:45.756Z,8.70
2023-01-23T00:58:12.491Z,8.20
2023-01-23T01:00:40.303Z,7.90
2023-01-23T01:03:08.044Z,8.50
2023-01-23T01:05:35.358Z,7.93
2023-01-23T01:08:03.871Z,9.90
2023-01-23T01:10:32.777Z,9.37
2023-01-23T01:13:02.030Z,9.13
2023-01-23T01:15:29.845Z,8.67
2023-01-23T01:17:57.835Z,9.70
2023-01-23T01:20:26.831Z,9.63
2023-01-23T01:22:54.903Z,9.37
2023-01-23T01:25:22.009Z,9.80
2023-01-23T01:27:48.915Z,10.27
2023-01-23T01:30:17.368Z,9.63
2023-01-23T01:32:44.904Z,9.43
2023-01-23T01:35:13.779Z,9.13
2023-01-23T01:37:41.806Z,8.90
2023-01-23T01:40:14.525Z,9.23
2023-01-23T01:42:48.091Z,10.00
2023-01-23T01:45:52.530Z,9.03
2023-01-23T01:48:22.944Z,8.13
2023-01-23T01:50:49.894Z,8.27
2023-01-23T01:53:16.871Z,9.77
2023-01-23T01:55:44.219Z,9.60
2023-01-23T01:58:11.109Z,9.63
2023-01-23T02:00:37.969Z,9.87
2023-01-23T02:03:04.796Z,8.97
2023-01-23T02:05:41.487Z,9.23
2023-01-23T02:08:44.943Z,10.30
2023-01-23T02:11:11.976Z,10.37
2023-01-23T02:13:40.405Z,11.30
2023-01-23T02:16:12.517Z,11.10
2023-01-23T02:18:45.134Z,10.57
2023-01-23T02:21:19.978Z,11.73
2023-01-23T02:24:31.146Z,11.30
2023-01-23T02:26:58.705Z,10.80
2023-01-23T02:29:26.703Z,10.87
2023-01-23T02:31:56.798Z,10.67
2023-01-23T02:34:26.013Z,10.77
2023-01-23T02:36:55.903Z,11.93
2023-01-23T02:39:23.446Z,10.60
2023-01-23T02:41:54.328Z,10.80
2023-01-23T02:44:28.200Z,10.40
2023-01-23T02:47:12.338Z,10.73
2023-01-23T02:49:40.741Z,10.03
2023-01-23T02:52:09.849Z,10.17
2023-01-23T02:54:36.938Z,11.27
2023-01-23T02:57:04.355Z,11.07
2023-01-23T02:59:50.153Z,10.30
2023-01-23T03:02:17.409Z,10.30
2023-01-23T03:04:44.297Z,10.40
2023-01-23T03:07:11.101Z,10.40
2023-01-23T03:09:37.948Z,10.90
2023-01-23T03:12:04.805Z,9.83
2023-01-23T03:14:32.374Z,10.50
2023-01-23T03:16:59.198Z,9.70
2023-01-23T03:19:31.247Z,9.17
2023-01-23T03:21:59.517Z,10.40
2023-01-23T03:24:26.262Z,9.77
2023-01-23T03:26:53.111Z,10.37
2023-01-23T03:29:44.510Z,10.33
2023-01-23T03:32:15.169Z,10.70
2023-01-23T03:34:43.345Z,10.40
2023-01-23T03:37:11.693Z,10.03
2023-01-23T03:39:58.481Z,10.10
2023-01-23T03:42:26.196Z,10.30
2023-01-23T03:44:55.998Z,10.63
2023-01-23T03:47:26.499Z,10.53
2023-01-23T03:49:55.080Z,10.30
2023-01-23T03:52:22.068Z,10.30
2023-01-23T03:54:48.885Z,9.83
2023-01-23T03:57:15.821Z,10.73
2023-01-23T03:59:48.297Z,11.23
2023-01-23T04:02:17.713Z,10.07
2023-01-23T04:04:44.593Z,10.43
2023-01-23T04:07:11.653Z,12.40
2023-01-23T04:09:40.619Z,10.23
2023-01-23T04:12:07.652Z,11.27
2023-01-23T04:14:38.579Z,10.93
2023-01-23T04:17:07.198Z,10.33
2023-01-23T04:19:35.130Z,11.13
2023-01-23T04:22:02.593Z,10.80
2023-01-23T04:24:33.606Z,10.93
2023-01-23T04:27:00.402Z,10.63
2023-01-23T04:29:28.398Z,10.40
2023-01-23T04:31:55.173Z,11.10
2023-01-23T04:34:22.296Z,10.70
2023-01-23T04:36:51.065Z,9.77
2023-01-23T04:39:17.904Z,10.47
2023-01-23T04:41:47.925Z,11.40
2023-01-23T04:44:27.628Z,11.13
2023-01-23T04:47:20.111Z,10.33
2023-01-23T04:49:48.181Z,11.30
2023-01-23T04:52:15.077Z,10.80
2023-01-23T04:54:48.592Z,10.43
2023-01-23T04:57:15.392Z,10.17
2023-01-23T04:59:42.207Z,10.60
2023-01-23T05:02:09.804Z,9.90
2023-01-23T05:04:41.378Z,10.43
2023-01-23T05:07:12.278Z,11.17
2023-01-23T05:09:43.571Z,11.23
2023-01-23T05:12:13.713Z,12.63
2023-01-23T05:14:41.843Z,13.90
2023-01-23T05:17:08.682Z,18.17
2023-01-23T05:19:40.165Z,18.43
2023-01-23T05:22:07.135Z,19.57
2023-01-23T05:24:34.020Z,18.23
2023-01-23T05:27:00.819Z,18.17
2023-01-23T05:29:30.630Z,17.83
2023-01-23T05:32:02.210Z,16.23
2023-01-23T05:34:51.427Z,13.90
2023-01-23T05:37:25.750Z,13.27
2023-01-23T05:39:59.708Z,13.83
2023-01-23T05:42:41.800Z,12.10
2023-01-23T05:45:28.481Z,10.90
2023-01-23T05:47:56.174Z,11.70
2023-01-23T05:50:24.749Z,11.43
2023-01-23T05:52:51.688Z,11.83
2023-01-23T05:55:18.733Z,11.63
2023-01-23T05:57:47.529Z,10.73
2023-01-23T06:00:33.028Z,11.57
2023-01-23T06:03:22.804Z,11.80
2023-01-23T06:06:16.772Z,10.63
2023-01-23T06:08:43.592Z,11.63
2023-01-23T06:11:10.407Z,10.67
2023-01-23T06:13:37.355Z,9.70
2023-01-23T06:16:04.443Z,10.30
2023-01-23T06:18:31.364Z,11.07
2023-01-23T06:20:59.979Z,11.03
2023-01-23T06:23:28.548Z,10.23
2023-01-23T06:26:04.862Z,10.57
2023-01-23T06:28:33.451Z,10.43
2023-01-23T06:31:02.621Z,9.67
2023-01-23T06:33:50.001Z,10.23
2023-01-23T06:36:17.596Z,10.10
2023-01-23T06:38:44.485Z,10.47
2023-01-23T06:41:12.933Z,9.80
2023-01-23T06:43:45.499Z,10.03
2023-01-23T06:46:17.899Z,10.40
2023-01-23T06:48:44.962Z,9.73
2023-01-23T06:51:11.981Z,10.20
2023-01-23T06:53:42.372Z,9.70
2023-01-23T06:56:12.132Z,9.43
2023-01-23T06:58:39.197Z,9.20
2023-01-23T07:01:11.093Z,9.23
2023-01-23T07:04:04.113Z,9.50
2023-01-23T07:06:31.468Z,10.30
2023-01-23T07:08:58.303Z,9.90
2023-01-23T07:11:25.468Z,9.67
2023-01-23T07:13:52.240Z,9.57
2023-01-23T07:16:19.863Z,9.50
2023-01-23T07:18:46.766Z,9.17
2023-01-23T07:21:13.535Z,9.93
2023-01-23T07:23:40.266Z,9.00
2023-01-23T07:26:10.079Z,9.60
2023-01-23T07:28:37.940Z,9.87
2023-01-23T07:31:05.663Z,10.00
2023-01-23T07:33:32.484Z,9.10
2023-01-23T07:35:59.283Z,9.57
2023-01-23T07:38:26.092Z,8.97
2023-01-23T07:40:53.295Z,8.80
2023-01-23T07:43:20.219Z,9.23
2023-01-23T07:45:47.006Z,9.23
2023-01-23T07:48:13.737Z,9.07
2023-01-23T07:50:40.526Z,9.50
2023-01-23T07:53:07.283Z,8.20
2023-01-23T07:55:34.321Z,8.63
2023-01-23T07:58:01.127Z,8.10
2023-01-23T08:00:29.876Z,7.83
2023-01-23T08:02:57.119Z,8.03
2023-01-23T08:05:24.248Z,8.27
2023-01-23T08:07:55.688Z,8.90
2023-01-23T08:10:27.603Z,8.27
2023-01-23T08:12:54.421Z,7.97
2023-01-23T08:15:21.167Z,7.43
2023-01-23T08:17:47.948Z,7.37
2023-01-23T08:20:15.123Z,7.27
2023-01-23T08:22:41.993Z,7.77
2023-01-23T08:25:10.218Z,7.70
2023-01-23T08:27:37.537Z,7.30
2023-01-23T08:30:05.911Z,7.90
2023-01-23T08:32:34.578Z,7.10
2023-01-23T08:35:01.366Z,7.37
2023-01-23T08:37:28.550Z,7.40
2023-01-23T08:39:55.342Z,7.40
2023-01-23T08:42:22.119Z,7.93
2023-01-23T08:44:48.857Z,8.07
2023-01-23T08:47:15.578Z,7.93
2023-01-23T08:49:42.495Z,7.90
2023-01-23T08:52:09.258Z,8.57
2023-01-23T08:54:36.002Z,7.60
2023-01-23T08:57:03.042Z,8.10
2023-01-23T08:59:29.824Z,8.03
2023-01-23T09:01:56.589Z,8.97
2023-01-23T09:04:23.344Z,9.13
2023-01-23T09:06:50.149Z,7.97
2023-01-23T09:09:18.151Z,8.63
2023-01-23T09:11:46.608Z,8.60
2023-01-23T09:14:13.456Z,8.07
2023-01-23T09:16:41.433Z,8.90
2023-01-23T09:19:10.297Z,8.57
2023-01-23T09:21:37.091Z,9.33
2023-01-23T09:24:04.199Z,8.53
2023-01-23T09:26:30.990Z,9.37
2023-01-23T09:28:57.744Z,9.13
2023-01-23T09:31:25.028Z,8.30
2023-01-23T09:33:51.825Z,9.47
2023-01-23T09:36:18.603Z,8.43
2023-01-23T09:38:47.601Z,8.77
2023-01-23T09:41:23.428Z,8.53
2023-01-23T09:43:58.875Z,9.97
2023-01-23T09:46:44.221Z,9.03
2023-01-23T09:49:19.748Z,8.80
2023-01-23T09:51:58.340Z,9.50
2023-01-23T09:54:49.193Z,8.80
2023-01-23T09:57:33.317Z,8.70
2023-01-23T10:00:13.184Z,9.20
2023-01-23T10:02:44.176Z,8.97
2023-01-23T10:05:20.206Z,9.30
2023-01-23T10:07:58.694Z,9.67
2023-01-23T10:10:44.453Z,8.83
2023-01-23T10:13:19.577Z,8.13
2023-01-23T10:16:35.395Z,9.07
2023-01-23T10:19:14.603Z,7.93
2023-01-23T10:22:02.610Z,9.33
2023-01-23T10:24:45.518Z,8.97
2023-01-23T10:27:23.972Z,8.43
2023-01-23T10:29:57.707Z,8.07
2023-01-23T10:32:28.069Z,8.57
2023-01-23T10:35:13.062Z,8.30
2023-01-23T10:37:46.439Z,9.67
2023-01-23T10:40:39.068Z,10.40
2023-01-23T10:43:22.011Z,11.27
2023-01-23T10:45:50.309Z,9.17
2023-01-23T10:48:29.254Z,10.43
2023-01-23T10:50:56.149Z,11.90
2023-01-23T10:53:24.975Z,9.97
2023-01-23T10:55:58.923Z,9.03
2023-01-23T10:58:41.020Z,9.43
2023-01-23T11:01:27.203Z,8.80
2023-01-23T11:03:54.114Z,8.50
2023-01-23T11:06:25.935Z,7.77
2023-01-23T11:09:04.660Z,8.87
2023-01-23T11:11:32.579Z,7.90
2023-01-23T11:14:07.122Z,7.87
2023-01-23T11:16:34.728Z,7.47
2023-01-23T11:19:22.486Z,7.97
2023-01-23T11:21:52.284Z,8.60
2023-01-23T11:24:38.396Z,8.30
2023-01-23T11:27:29.947Z,8.00
2023-01-23T11:30:09.013Z,7.87
2023-01-23T11:32:46.595Z,8.07
2023-01-23T11:35:16.473Z,9.03
2023-01-23T11:37:43.451Z,7.93
2023-01-23T11:40:16.962Z,7.33
2023-01-23T11:42:44.916Z,8.47
2023-01-23T11:45:13.605Z,7.10
2023-01-23T11:47:49.439Z,8.00
2023-01-23T11:50:28.454Z,7.47
2023-01-23T11:53:17.464Z,7.33
2023-01-23T11:56:07.215Z,8.03
2023-01-23T11:58:49.746Z,8.37
2023-01-23T12:01:33.785Z,7.80
2023-01-23T12:04:19.527Z,8.20
2023-01-23T12:07:04.762Z,7.83
2023-01-23T12:09:45.332Z,7.73
2023-01-23T12:13:02.343Z,7.30
2023-01-23T12:15:56.967Z,7.20
2023-01-23T12:18:33.227Z,7.67
2023-01-23T12:21:18.678Z,6.73
2023-01-23T12:24:11.085Z,6.97
2023-01-23T12:26:47.269Z,7.23
2023-01-23T12:29:38.157Z,6.87
2023-01-23T12:32:34.866Z,6.53
2023-01-23T12:35:33.673Z,6.50
2023-01-23T12:38:11.663Z,6.43
2023-01-23T12:40:52.289Z,6.00
2023-01-23T12:43:47.243Z,6.43
2023-01-23T12:46:42.290Z,6.30
2023-01-23T12:49:17.980Z,5.93
2023-01-23T12:51:51.146Z,5.80
2023-01-23T12:54:29.642Z,5.97
2023-01-23T12:56:57.669Z,5.73
2023-01-23T12:59:49.398Z,5.53
2023-01-23T13:02:33.808Z,6.40
2023-01-23T13:05:26.432Z,5.80
2023-01-23T13:08:16.046Z,6.33
2023-01-23T13:11:23.160Z,5.83
2023-01-23T13:13:50.058Z,6.33
2023-01-23T13:16:18.827Z,6.60
2023-01-23T13:19:15.871Z,6.80
2023-01-23T13:22:32.291Z,6.07
2023-01-23T13:25:17.636Z,6.77
2023-01-23T13:28:21.958Z,7.23
2023-01-23T13:31:00.953Z,7.40
2023-01-23T13:33:33.242Z,7.40
2023-01-23T13:36:34.428Z,7.83
2023-01-23T13:39:13.214Z,8.10
2023-01-23T13:41:39.960Z,7.90
2023-01-23T13:44:40.224Z,7.83
2023-01-23T14:21:41.856Z,7.57
2023-01-23T14:27:21.521Z,7.27
2023-01-23T14:30:00.651Z,8.50
2023-01-23T14:32:32.020Z,7.60
2023-01-23T14:34:59.060Z,7.47
2023-01-23T14:37:28.152Z,7.47
2023-01-23T14:39:59.789Z,7.47
2023-01-23T14:42:30.295Z,8.13
2023-01-23T14:44:59.685Z,7.50
2023-01-23T14:47:34.282Z,8.93
2023-01-23T14:50:02.905Z,8.53
2023-01-23T14:52:30.973Z,8.37
2023-01-23T14:55:05.830Z,7.87
2023-01-23T14:57:35.366Z,7.60
2023-01-23T15:00:03.825Z,8.73
2023-01-23T15:02:33.783Z,8.80
2023-01-23T15:05:12.806Z,7.87
2023-01-23T15:07:47.698Z,7.73
2023-01-23T15:10:49.063Z,7.50
2023-01-23T15:13:25.591Z,8.03
2023-01-23T15:16:01.827Z,7.30
2023-01-23T15:18:33.924Z,7.33
2023-01-23T15:21:21.781Z,7.80
2023-01-23T15:24:05.969Z,6.67
2023-01-23T15:26:34.399Z,7.70
2023-01-23T15:29:23.102Z,9.17
2023-01-23T15:31:51.730Z,7.30
2023-01-23T15:34:31.027Z,7.97
2023-01-23T15:37:05.443Z,7.67
2023-01-23T15:39:39.466Z,6.90
2023-01-23T15:42:12.316Z,8.63
2023-01-23T15:44:39.976Z,7.70
2023-01-23T15:47:07.031Z,7.67
2023-01-23T15:49:35.847Z,7.77
2023-01-23T15:52:22.893Z,7.40
2023-01-23T15:54:55.417Z,7.90
2023-01-23T15:57:22.397Z,8.50
2023-01-23T15:59:49.125Z,9.00
2023-01-23T16:02:29.997Z,8.00
2023-01-23T16:04:57.277Z,8.53
2023-01-23T16:07:45.125Z,7.57
2023-01-23T16:10:22.245Z,8.03
2023-01-23T16:12:50.973Z,8.07
2023-01-23T16:15:29.376Z,9.23
2023-01-23T16:17:57.196Z,9.03
2023-01-23T16:20:28.991Z,8.70
2023-01-23T16:23:08.535Z,8.67
2023-01-23T16:25:45.096Z,8.80
2023-01-23T16:28:24.045Z,9.20
2023-01-23T16:30:51.797Z,8.27
2023-01-23T16:33:19.726Z,9.57
2023-01-23T16:35:47.328Z,9.23
2023-01-23T16:38:22.941Z,7.93
2023-01-23T16:40:51.627Z,8.10
2023-01-23T16:43:18.716Z,9.40
2023-01-23T16:45:45.599Z,9.07
2023-01-23T16:48:21.628Z,8.40
2023-01-23T16:51:05.013Z,9.30
2023-01-23T16:53:37.971Z,9.90
2023-01-23T16:56:05.775Z,8.73
2023-01-23T16:58:38.547Z,9.57
2023-01-23T17:01:13.184Z,8.50
2023-01-23T17:03:41.320Z,8.73
2023-01-23T17:06:16.216Z,9.10
2023-01-23T17:08:43.251Z,8.67
2023-01-23T17:11:23.055Z,9.07
2023-01-23T17:13:57.104Z,8.83
2023-01-23T17:16:27.589Z,9.10
2023-01-23T17:18:58.965Z,9.90
2023-01-23T17:21:32.229Z,8.90
2023-01-23T17:23:59.146Z,8.83
2023-01-23T17:26:26.346Z,9.03
2023-01-23T17:28:53.367Z,9.03
2023-01-23T17:31:25.667Z,14.30
2023-01-23T17:33:52.931Z,10.50
2023-01-23T17:36:19.850Z,9.80
2023-01-23T17:38:46.676Z,9.00
2023-01-23T17:41:15.113Z,8.30
2023-01-23T17:43:44.249Z,8.40
2023-01-23T17:46:32.406Z,8.70
2023-01-23T17:48:59.660Z,8.73
2023-01-23T17:51:26.784Z,9.03
2023-01-23T17:53:53.749Z,8.73
2023-01-23T17:56:20.607Z,9.63
2023-01-23T17:58:47.430Z,10.13
2023-01-23T18:01:22.249Z,9.90
2023-01-23T18:03:50.541Z,9.73
2023-01-23T18:06:18.626Z,10.47
2023-01-23T18:08:46.557Z,10.63
2023-01-23T18:11:18.846Z,9.83
2023-01-23T18:13:48.548Z,9.60
2023-01-23T18:16:39.586Z,10.27
2023-01-23T18:19:16.731Z,9.57
2023-01-23T18:21:45.952Z,9.70
2023-01-23T18:24:22.324Z,9.43
2023-01-23T18:26:59.686Z,9.73
2023-01-23T18:29:30.825Z,9.87
2023-01-23T18:32:18.926Z,10.23
2023-01-23T18:34:58.540Z,9.13
2023-01-23T18:37:44.340Z,9.87
2023-01-23T18:40:32.497Z,9.70
2023-01-23T18:43:18.981Z,9.67
2023-01-23T18:45:46.090Z,9.57
2023-01-23T18:48:25.031Z,10.10
2023-01-23T18:51:06.352Z,9.73
2023-01-23T18:53:46.958Z,9.43
2023-01-23T18:56:27.367Z,9.87
2023-01-23T18:59:10.967Z,10.17
2023-01-23T19:02:01.143Z,9.77
2023-01-23T19:04:37.624Z,10.33
2023-01-23T19:07:18.204Z,9.47
2023-01-23T19:09:48.946Z,10.03
2023-01-23T19:12:30.898Z,10.40
2023-01-23T19:15:16.500Z,11.13
2023-01-23T19:17:47.779Z,11.40
2023-01-23T19:20:32.938Z,9.73
2023-01-23T19:23:16.085Z,10.80
2023-01-23T19:25:45.436Z,10.57
2023-01-23T19:28:12.459Z,10.23
2023-01-23T19:30:39.552Z,11.53
2023-01-23T19:33:06.436Z,13.20
2023-01-23T19:35:33.155Z,13.77
2023-01-23T19:38:00.363Z,20.07
2023-01-23T19:40:27.099Z,13.60
2023-01-23T19:43:12.826Z,14.20
2023-01-23T19:45:41.114Z,16.93
2023-01-23T19:48:08.881Z,27.00
2023-01-23T19:50:35.737Z,23.03
2023-01-23T19:53:02.486Z,18.13
2023-01-23T19:55:32.663Z,14.90
2023-01-23T19:57:59.804Z,12.67
2023-01-23T20:00:30.746Z,12.87
2023-01-23T20:02:58.394Z,12.93
2023-01-23T20:05:26.711Z,12.53
2023-01-23T20:07:54.137Z,11.73
2023-01-23T20:10:21.585Z,11.53
2023-01-23T20:12:55.195Z,10.80
2023-01-23T20:15:24.290Z,11.23
2023-01-23T20:17:54.295Z,11.00
2023-01-23T20:20:21.855Z,10.17
2023-01-23T20:22:48.901Z,10.83
2023-01-23T20:25:17.357Z,11.63
2023-01-23T20:27:44.868Z,11.37
2023-01-23T20:30:16.094Z,11.43
2023-01-23T20:32:42.980Z,10.77
2023-01-23T20:35:10.452Z,11.17
2023-01-23T20:37:37.446Z,11.30
2023-01-23T20:40:04.701Z,10.30
2023-01-23T20:42:31.512Z,10.60
2023-01-23T20:44:58.250Z,11.90
2023-01-23T20:47:25.039Z,11.87
2023-01-23T20:49:51.848Z,10.33
2023-01-23T20:52:37.268Z,10.23
2023-01-23T20:55:04.215Z,10.07
2023-01-23T20:57:50.988Z,10.60
2023-01-23T21:00:18.149Z,9.47
2023-01-23T21:02:44.910Z,10.20
2023-01-23T21:05:11.692Z,9.60
2023-01-23T21:07:38.506Z,10.00
2023-01-23T21:10:05.689Z,9.57
2023-01-23T21:12:32.826Z,9.80
2023-01-23T21:15:00.449Z,9.53
2023-01-23T21:17:27.355Z,9.73
2023-01-23T21:19:54.086Z,9.73
2023-01-23T21:22:20.879Z,9.37
2023-01-23T21:24:47.620Z,9.23
2023-01-23T21:27:14.490Z,9.90
2023-01-23T21:29:41.269Z,9.37
2023-01-23T21:32:08.018Z,10.13
2023-01-23T21:34:34.908Z,8.80
2023-01-23T21:37:03.237Z,8.97
2023-01-23T21:39:30.078Z,8.33
2023-01-23T21:41:56.796Z,10.00
2023-01-23T21:44:23.582Z,9.03
2023-01-23T21:46:50.834Z,10.00
2023-01-23T21:49:17.732Z,9.70
2023-01-23T21:51:44.970Z,11.10
2023-01-23T21:54:11.781Z,10.37
2023-01-23T21:56:38.582Z,10.17
2023-01-23T21:59:05.377Z,10.00
2023-01-23T22:01:32.827Z,9.50
2023-01-23T22:04:05.223Z,10.80
2023-01-23T22:06:32.950Z,10.00
2023-01-23T22:09:00.117Z,9.73
2023-01-23T22:11:27.384Z,9.40
2023-01-23T22:13:54.582Z,9.33
2023-01-23T22:16:31.948Z,10.20
2023-01-23T22:19:07.450Z,10.67
2023-01-23T22:21:34.269Z,10.57
2023-01-23T22:24:01.420Z,10.87
2023-01-23T22:26:28.371Z,10.83
2023-01-23T22:28:55.120Z,10.97
2023-01-23T22:31:22.118Z,10.70
2023-01-23T22:33:49.081Z,11.07
2023-01-23T22:36:19.201Z,11.07
2023-01-23T22:38:53.420Z,11.77
2023-01-23T22:41:20.669Z,10.63
2023-01-23T22:43:51.595Z,10.70
2023-01-23T22:46:21.019Z,11.13
2023-01-23T22:48:47.859Z,10.17
2023-01-23T22:51:24.806Z,10.40
2023-01-23T22:53:53.403Z,11.10
2023-01-23T22:56:20.689Z,10.13
2023-01-23T22:58:48.811Z,11.07
2023-01-23T23:01:16.272Z,11.47
2023-01-23T23:03:44.097Z,11.37
2023-01-23T23:06:24.184Z,11.03
2023-01-23T23:08:50.967Z,10.33
2023-01-23T23:11:23.605Z,12.07
2023-01-23T23:13:50.829Z,11.73
2023-01-23T23:16:27.178Z,11.80
2023-01-23T23:18:55.650Z,12.07
2023-01-23T23:21:28.259Z,10.80
2023-01-23T23:23:58.031Z,10.80
2023-01-23T23:26:26.757Z,11.17
2023-01-23T23:28:54.806Z,11.27
2023-01-23T23:31:21.712Z,11.60
2023-01-23T23:33:48.586Z,11.13
2023-01-23T23:36:15.443Z,11.50
2023-01-23T23:38:42.205Z,12.13
2023-01-23T23:45:21.871Z,10.10
2023-01-23T23:47:48.854Z,12.13
2023-01-23T23:50:15.891Z,11.47
2023-01-23T23:52:42.670Z,11.20
2023-01-23T23:55:09.689Z,11.47
2023-01-23T23:57:36.479Z,12.00
